• Join FlightAware (Why Join?)
  • Login
  • US Flag 
09:00AM EDT


 

Airport Tracker/Info


-or-


 

Live Flight TrackerFlight Track Log ✈ N110RF ✈ 16-May-2012 ✈ KHPN - KTEB

Flight Track Log - Related Links

Times and Time Zones

All times are in EDT time to prevent confusion due to time zone crossing. See the N110RF flight status page for this flight to view local times or setup timezone preferences in your user account.

Time Position Orientation Groundspeed Altitude Reporting Facility
EDT Latitude Longitude Course Direction KTS MPH feet Rate Location/Type
11:41AM 41.0333 -73.7167 311° West 180 207 1,600  Level New York TRACON
11:42AM 41.0667 -73.7667 312° West 182 209 3,200 1,200 Climbing New York TRACON
11:43AM 41.1000 -73.8167 323° Northwest 197 227 4,000 360 Climbing New York TRACON
11:44AM 41.1500 -73.8667 339° North 240 276 4,000  Level New York TRACON
11:45AM 41.2167 -73.9000 323° Northwest 244 281 4,000  Level New York TRACON
11:46AM 41.2667 -73.9500 217° Southwest 260 299 4,000 -180 Level New York TRACON
11:47AM 41.2167 -74.0000 207° Southwest 233 268 3,700 -360 Descending New York TRACON
11:48AM 41.1667 -74.0333 180° South 199 229 3,300 -360 Descending New York TRACON
11:49AM 41.1167 -74.0333 194° South 195 224 3,000 -240 Descending New York TRACON
11:50AM 41.0667 -74.0500 180° South 166 191 2,900 -300 Descending New York TRACON
11:51AM 41.0167 -74.0500 180° South 154 177 2,400 -480 Descending New York TRACON
11:52AM 40.9833 -74.0500 180° South 134 154 2,000 -300 Descending New York TRACON
11:53AM 40.9500 -74.0500 180° South 118 136 1,900 -480 Descending New York TRACON
11:54AM 40.9167 -74.0500 159° South 137 158 1,100 -660 Descending New York TRACON
11:55AM 40.8833 -74.0333 217° Southwest 127 146 600 -420 Descending New York TRACON
11:56AM 40.8500 -74.0667 16° North 123 142 300 -300 Descending New York TRACON
12:04PM 41.2417 -73.9165 258° West  Level FlightAware Approximate
12:05PM 41.2196 -74.0596 269° West  Level FlightAware Approximate
12:06PM 41.2167 -74.2057 253° West  Level FlightAware Approximate
12:07PM 41.1848 -74.3420 231° Southwest  Level FlightAware Approximate
12:08PM 41.1153 -74.4555 135° Southeast  Level FlightAware Approximate
12:09PM 41.0373 -74.3524 135° Southeast  Level FlightAware Approximate